createdAt,value
2019-06-10T00:02:43.851Z,2.47
2019-06-10T00:06:26.526Z,2.42
2019-06-10T00:10:04.003Z,1.95
2019-06-10T00:13:46.837Z,2.10
2019-06-10T00:17:22.915Z,2.52
2019-06-10T00:21:06.720Z,2.60
2019-06-10T00:25:05.178Z,2.15
2019-06-10T00:28:47.299Z,2.60
2019-06-10T00:32:22.952Z,1.77
2019-06-10T00:36:07.187Z,3.00
2019-06-10T00:39:51.228Z,2.20
2019-06-10T00:43:33.916Z,2.08
2019-06-10T00:47:14.684Z,2.52
2019-06-10T00:50:53.994Z,2.62
2019-06-10T00:54:31.219Z,2.80
2019-06-10T00:58:07.738Z,2.20
2019-06-10T01:01:43.073Z,2.42
2019-06-10T01:05:25.597Z,2.58
2019-06-10T01:09:01.005Z,2.42
2019-06-10T01:12:45.857Z,2.67
2019-06-10T01:16:21.887Z,2.70
2019-06-10T01:20:05.734Z,2.70
2019-06-10T01:23:47.760Z,2.95
2019-06-10T01:27:31.513Z,2.47
2019-06-10T01:31:28.192Z,2.75
2019-06-10T01:35:11.532Z,3.08
2019-06-10T01:39:09.500Z,3.12
2019-06-10T01:42:52.840Z,3.12
2019-06-10T01:46:28.217Z,2.27
2019-06-10T01:50:04.287Z,2.50
2019-06-10T01:53:47.545Z,3.45
2019-06-10T01:57:23.470Z,3.22
2019-06-10T02:01:25.562Z,3.25
2019-06-10T02:05:01.525Z,3.02
2019-06-10T02:08:38.006Z,2.80
2019-06-10T02:12:24.007Z,3.37
2019-06-10T02:16:04.406Z,3.45
2019-06-10T02:19:46.943Z,3.35
2019-06-10T02:23:23.282Z,3.42
2019-06-10T02:27:05.909Z,4.45
2019-06-10T02:30:50.560Z,3.92
2019-06-10T02:34:27.513Z,3.60
2019-06-10T02:38:33.153Z,3.87
2019-06-10T02:42:30.659Z,4.12
2019-06-10T02:46:31.023Z,3.37
2019-06-10T02:50:10.241Z,4.17
2019-06-10T02:54:07.258Z,5.15
2019-06-10T02:57:44.913Z,3.72
2019-06-10T03:01:23.284Z,3.77
2019-06-10T03:04:57.936Z,4.33
2019-06-10T03:08:36.101Z,3.77
2019-06-10T03:12:17.768Z,3.98
2019-06-10T03:20:12.375Z,3.65
2019-06-10T03:23:53.378Z,3.62
2019-06-10T03:27:35.935Z,3.80
2019-06-10T03:31:15.178Z,4.78
2019-06-10T03:34:55.903Z,4.08
2019-06-10T03:38:32.445Z,3.55
2019-06-10T03:42:16.695Z,4.00
2019-06-10T03:46:13.560Z,3.87
2019-06-10T03:49:56.746Z,3.98
2019-06-10T03:53:33.750Z,3.40
2019-06-10T03:57:09.438Z,4.28
2019-06-10T04:00:44.769Z,3.35
2019-06-10T04:04:28.361Z,4.00
2019-06-10T04:08:12.595Z,3.90
2019-06-10T04:11:55.149Z,4.22
2019-06-10T04:15:32.593Z,3.92
2019-06-10T04:19:15.611Z,3.70
2019-06-10T04:22:52.301Z,3.95
2019-06-10T04:26:34.896Z,3.22
2019-06-10T04:30:12.426Z,4.05
2019-06-10T04:33:54.748Z,3.70
2019-06-10T04:37:32.325Z,3.37
2019-06-10T04:41:14.680Z,4.37
2019-06-10T04:44:52.438Z,4.40
2019-06-10T04:48:36.005Z,4.28
2019-06-10T04:52:12.257Z,4.30
2019-06-10T04:55:48.299Z,3.58
2019-06-10T04:59:26.070Z,4.40
2019-06-10T05:03:28.046Z,5.00
2019-06-10T05:07:12.650Z,4.42
2019-06-10T05:11:14.904Z,4.55
2019-06-10T05:14:52.768Z,4.17
2019-06-10T05:18:36.281Z,4.10
2019-06-10T05:22:12.447Z,4.60
2019-06-10T05:25:56.282Z,5.05
2019-06-10T05:29:52.913Z,4.47
2019-06-10T05:33:35.444Z,4.97
2019-06-10T05:37:13.141Z,4.70
2019-06-10T05:40:55.085Z,6.45
2019-06-10T05:52:33.789Z,5.58
2019-06-10T06:00:23.355Z,6.65
2019-06-10T06:04:08.993Z,7.10
2019-06-10T06:07:44.547Z,6.42
2019-06-10T06:11:36.117Z,6.97
2019-06-10T06:14:59.223Z,7.87
2019-06-10T06:18:36.415Z,7.25
2019-06-10T06:22:13.006Z,8.13
2019-06-10T06:25:55.638Z,7.95
2019-06-10T06:29:33.460Z,8.63
2019-06-10T06:33:15.727Z,7.87
2019-06-10T06:36:52.865Z,8.03
2019-06-10T06:40:37.244Z,9.70
2019-06-10T06:44:35.884Z,8.53
2019-06-10T06:48:39.101Z,7.65
2019-06-10T06:53:07.745Z,8.93
2019-06-10T06:56:18.627Z,8.30
2019-06-10T06:59:54.817Z,8.20
2019-06-10T07:03:38.591Z,9.98
2019-06-10T07:07:36.001Z,9.63
2019-06-10T07:11:22.004Z,10.25
2019-06-10T07:15:27.064Z,9.95
2019-06-10T07:19:10.081Z,8.80
2019-06-10T07:22:46.675Z,8.58
2019-06-10T07:26:29.544Z,8.38
2019-06-10T07:30:11.727Z,7.30
2019-06-10T07:33:52.356Z,6.67
2019-06-10T07:37:48.161Z,6.97
2019-06-10T07:41:32.789Z,7.12
2019-06-10T07:45:27.840Z,6.87
2019-06-10T07:49:13.242Z,6.83
2019-06-10T07:53:08.453Z,5.05
2019-06-10T07:56:49.819Z,6.20
2019-06-10T08:00:22.724Z,6.22
2019-06-10T08:03:58.412Z,6.78
2019-06-10T08:07:43.689Z,5.17
2019-06-10T08:11:25.438Z,6.55
2019-06-10T08:15:08.059Z,6.58
2019-06-10T08:19:09.736Z,7.03
2019-06-10T08:22:33.497Z,6.47
2019-06-10T08:26:25.677Z,5.65
2019-06-10T08:34:32.969Z,6.28
2019-06-10T08:38:08.547Z,6.80
2019-06-10T08:41:47.291Z,7.80
2019-06-10T08:45:28.334Z,6.78
2019-06-10T08:49:04.381Z,7.12
2019-06-10T08:53:03.369Z,7.72
2019-06-10T08:56:47.613Z,7.80
2019-06-10T09:00:45.118Z,7.05
2019-06-10T09:04:25.581Z,7.92
2019-06-10T09:08:02.801Z,7.85
2019-06-10T09:11:49.487Z,6.58
2019-06-10T09:15:29.207Z,9.33
2019-06-10T09:19:13.100Z,7.87
2019-06-10T09:23:21.607Z,9.83
2019-06-10T09:26:54.893Z,9.63
2019-06-10T09:30:57.940Z,11.30
2019-06-10T09:34:35.869Z,9.45
2019-06-10T09:38:14.083Z,9.05
2019-06-10T09:42:02.255Z,7.95
2019-06-10T09:45:56.214Z,8.25
2019-06-10T09:49:37.792Z,8.45
2019-06-10T09:53:26.679Z,7.00
2019-06-10T09:56:57.913Z,7.00
2019-06-10T10:05:05.567Z,8.63
2019-06-10T10:08:45.000Z,8.40
2019-06-10T10:12:25.692Z,7.03
2019-06-10T10:16:02.566Z,7.92
2019-06-10T10:19:48.674Z,8.70
2019-06-10T10:23:58.328Z,8.83
2019-06-10T10:27:28.086Z,8.70
2019-06-10T10:31:25.526Z,10.35
2019-06-10T10:35:08.459Z,10.80
2019-06-10T10:38:44.760Z,12.23
2019-06-10T10:42:41.626Z,11.63
2019-06-10T10:46:25.261Z,11.45
2019-06-10T10:50:07.997Z,11.30
2019-06-10T10:53:46.547Z,12.25
2019-06-10T10:57:27.657Z,10.75
2019-06-10T11:01:04.622Z,10.90
2019-06-10T11:04:48.002Z,11.18
2019-06-10T11:08:46.718Z,10.40
2019-06-10T11:12:29.999Z,8.08
2019-06-10T11:16:05.886Z,8.00
2019-06-10T11:19:49.304Z,7.87
2019-06-10T11:23:36.119Z,8.73
2019-06-10T11:27:18.679Z,8.18
2019-06-10T11:30:56.744Z,7.28
2019-06-10T11:34:38.886Z,7.58
2019-06-10T11:38:14.981Z,7.03
2019-06-10T11:41:52.849Z,8.73
2019-06-10T11:45:29.143Z,8.65
2019-06-10T11:49:04.976Z,7.55
2019-06-10T11:52:47.627Z,7.05
2019-06-10T11:56:23.404Z,10.35
2019-06-10T12:00:13.903Z,6.92
2019-06-10T12:04:04.286Z,7.97
2019-06-10T12:07:46.915Z,7.55
2019-06-10T12:11:23.140Z,9.05
2019-06-10T12:15:06.129Z,7.97
2019-06-10T12:18:42.660Z,10.28
2019-06-10T12:22:25.425Z,9.08
2019-06-10T12:26:03.456Z,6.47
2019-06-10T12:29:45.499Z,7.17
2019-06-10T12:33:24.843Z,8.63
2019-06-10T12:41:15.151Z,7.42
2019-06-10T12:44:53.824Z,7.60
2019-06-10T12:48:35.264Z,6.12
2019-06-10T12:52:12.550Z,5.80
2019-06-10T12:55:55.901Z,5.33
2019-06-10T12:59:52.395Z,4.92
2019-06-10T13:03:35.008Z,5.20
2019-06-10T13:07:12.572Z,4.37
2019-06-10T13:10:55.808Z,6.45
2019-06-10T13:14:53.132Z,6.10
2019-06-10T13:18:36.517Z,6.45
2019-06-10T13:22:33.170Z,6.62
2019-06-10T13:26:17.714Z,7.53
2019-06-10T13:30:13.492Z,5.97
2019-06-10T13:33:56.613Z,5.62
2019-06-10T13:37:53.448Z,4.83
2019-06-10T13:41:36.245Z,5.35
2019-06-10T13:45:12.557Z,5.30
2019-06-10T13:48:55.187Z,4.85
2019-06-10T13:52:32.161Z,4.17
2019-06-10T13:56:38.004Z,4.95
2019-06-10T14:00:14.669Z,4.90
2019-06-10T14:03:58.578Z,5.08
2019-06-10T14:07:55.400Z,4.95
2019-06-10T14:11:37.968Z,5.00
2019-06-10T14:15:17.021Z,4.35
2019-06-10T14:18:58.356Z,5.45
2019-06-10T14:22:34.436Z,5.15
2019-06-10T14:26:18.517Z,5.45
2019-06-10T14:30:15.505Z,4.95
2019-06-10T14:33:59.179Z,5.12
2019-06-10T14:37:39.108Z,5.50
2019-06-10T14:45:16.595Z,5.33
2019-06-10T14:48:58.700Z,5.55
2019-06-10T14:52:34.400Z,5.92
2019-06-10T14:56:19.591Z,5.28
2019-06-10T15:00:16.676Z,5.22
2019-06-10T15:03:59.206Z,5.22
2019-06-10T15:07:34.882Z,5.95
2019-06-10T15:11:18.431Z,6.97
2019-06-10T15:18:45.991Z,6.80
2019-06-10T15:22:28.643Z,5.72
2019-06-10T15:26:04.718Z,6.35
2019-06-10T15:29:47.248Z,5.67
2019-06-10T15:33:25.014Z,6.60
2019-06-10T15:37:02.850Z,6.05
2019-06-10T15:40:38.422Z,4.15
2019-06-10T15:44:18.188Z,4.12
2019-06-10T15:47:58.520Z,5.03
2019-06-10T15:51:34.152Z,4.72
2019-06-10T15:55:38.747Z,3.15
2019-06-10T15:59:04.569Z,3.98
2019-06-10T16:02:47.141Z,4.70
2019-06-10T16:06:23.177Z,4.15
2019-06-10T16:10:06.931Z,4.62
2019-06-10T16:13:43.110Z,3.50
2019-06-10T16:17:26.166Z,3.62
2019-06-10T16:21:04.353Z,4.20
2019-06-10T16:24:46.731Z,4.33
2019-06-10T16:28:24.549Z,4.20
2019-06-10T16:32:06.712Z,4.15
2019-06-10T16:35:42.170Z,4.05
2019-06-10T16:39:26.807Z,4.78
2019-06-10T16:43:09.037Z,3.98
2019-06-10T16:46:52.655Z,4.42
2019-06-10T16:50:49.505Z,4.28
2019-06-10T16:54:33.041Z,4.92
2019-06-10T16:58:30.339Z,5.42
2019-06-10T17:02:12.999Z,5.70
2019-06-10T17:05:48.343Z,6.10
2019-06-10T17:09:26.149Z,6.37
2019-06-10T17:13:03.941Z,5.75
2019-06-10T17:16:47.585Z,6.22
2019-06-10T17:20:25.150Z,42.93
2019-06-10T17:24:03.482Z,5.17
2019-06-10T17:27:46.026Z,5.53
2019-06-10T17:31:25.727Z,5.35
2019-06-10T17:35:06.936Z,3.15
2019-06-10T17:38:44.248Z,3.90
2019-06-10T17:42:30.889Z,4.00
2019-06-10T17:46:12.450Z,4.28
2019-06-10T17:49:55.030Z,2.95
2019-06-10T17:53:32.977Z,3.20
2019-06-10T17:57:14.940Z,3.52
2019-06-10T18:00:52.816Z,2.80
2019-06-10T18:04:34.935Z,3.02
2019-06-10T18:08:10.122Z,3.52
2019-06-10T18:11:46.196Z,3.27
2019-06-10T18:15:24.018Z,3.35
2019-06-10T18:19:09.497Z,3.22
2019-06-10T18:22:46.353Z,3.85
2019-06-10T18:26:23.168Z,5.03
2019-06-10T18:34:29.898Z,4.12
2019-06-10T18:38:12.775Z,2.85
2019-06-10T18:41:55.858Z,3.60
2019-06-10T18:45:39.184Z,4.03
2019-06-10T18:49:37.433Z,3.37
2019-06-10T18:53:20.103Z,3.77
2019-06-10T18:57:02.938Z,3.47
2019-06-10T19:01:34.375Z,4.30
2019-06-10T19:09:06.302Z,4.08
2019-06-10T19:12:42.608Z,3.85
2019-06-10T19:16:25.195Z,3.17
2019-06-10T19:20:03.745Z,4.00
2019-06-10T19:23:45.723Z,3.85
2019-06-10T19:27:23.702Z,4.20
2019-06-10T19:31:06.084Z,4.25
2019-06-10T19:34:48.030Z,3.83
2019-06-10T19:38:27.166Z,4.28
2019-06-10T19:42:02.922Z,6.00
2019-06-10T19:47:07.063Z,6.67
2019-06-10T19:51:54.258Z,6.45
2019-06-10T19:55:25.265Z,7.92
2019-06-10T19:58:48.403Z,8.40
2019-06-10T20:02:13.147Z,8.08
2019-06-10T20:05:36.414Z,8.88
2019-06-10T20:08:59.946Z,8.50
2019-06-10T20:12:23.123Z,8.53
2019-06-10T20:16:33.636Z,7.83
2019-06-10T20:20:16.655Z,8.55
2019-06-10T20:24:15.941Z,8.30
2019-06-10T20:28:33.245Z,9.38
2019-06-10T20:32:08.511Z,8.25
2019-06-10T20:35:51.020Z,8.93
2019-06-10T20:39:29.224Z,8.93
2019-06-10T20:43:03.693Z,10.70
2019-06-10T20:46:47.736Z,8.68
2019-06-10T20:50:33.852Z,8.55
2019-06-10T20:54:16.674Z,8.68
2019-06-10T20:58:02.951Z,9.00
2019-06-10T21:01:38.828Z,8.05
2019-06-10T21:05:14.433Z,9.43
2019-06-10T21:08:51.216Z,11.05
2019-06-10T21:12:34.519Z,10.45
2019-06-10T21:16:12.646Z,10.53
2019-06-10T21:19:49.181Z,9.15
2019-06-10T21:23:32.741Z,8.90
2019-06-10T21:27:08.177Z,10.10
2019-06-10T21:30:49.594Z,9.85
2019-06-10T21:34:22.476Z,10.78
2019-06-10T21:38:05.100Z,11.88
2019-06-10T21:41:42.578Z,10.48
2019-06-10T21:45:22.734Z,12.68
2019-06-10T21:49:07.105Z,10.18
2019-06-10T21:52:45.774Z,10.85
2019-06-10T21:56:22.486Z,14.63
2019-06-10T22:04:07.245Z,12.47
2019-06-10T22:07:43.830Z,13.40
2019-06-10T22:11:19.555Z,13.15
2019-06-10T22:15:02.157Z,14.47
2019-06-10T22:18:38.356Z,15.18
2019-06-10T22:22:36.247Z,14.50
2019-06-10T22:26:19.119Z,15.20
2019-06-10T22:29:57.015Z,15.63
2019-06-10T22:33:43.155Z,14.50
2019-06-10T22:37:29.723Z,13.05
2019-06-10T22:41:12.400Z,12.15
2019-06-10T22:44:47.737Z,11.05
2019-06-10T22:48:33.273Z,12.53
2019-06-10T22:52:28.134Z,12.68
2019-06-10T22:56:13.108Z,12.55
2019-06-10T22:59:48.821Z,12.15
2019-06-10T23:03:31.369Z,12.43
2019-06-10T23:07:06.661Z,12.00
2019-06-10T23:10:50.593Z,12.33
2019-06-10T23:14:36.517Z,10.93
2019-06-10T23:18:19.050Z,11.20
2019-06-10T23:21:55.710Z,10.72
2019-06-10T23:25:38.698Z,8.90
2019-06-10T23:29:14.210Z,8.23
2019-06-10T23:32:58.141Z,9.18
2019-06-10T23:36:43.167Z,7.35
2019-06-10T23:40:36.194Z,7.25
2019-06-10T23:44:12.340Z,7.12
2019-06-10T23:47:56.538Z,7.08
2019-06-10T23:51:38.262Z,6.83
2019-06-10T23:55:22.714Z,6.65
2019-06-10T23:59:18.479Z,7.55
